• Join FlightAware (Why Join?)
  • Login
  • US Flag 
07:26AM EDT


 

Airport Tracker/Info


-or-


 

Live Flight TrackerFlight Track Log ✈ EJM685 ✈ 15-Oct-2013 ✈ KTEB - KPBI

Flight Track Log - Related Links

Times and Time Zones

All times are in EDT time to prevent confusion due to time zone crossing. See the EJM685 flight status page for this flight to view local times or setup timezone preferences in your user account.

Time Position Orientation Groundspeed Altitude Reporting Facility
EDT Latitude Longitude Course Direction KTS MPH feet Rate Location/Type
03:43PM 40.8167 -74.1167 229° Southwest 186 214 1,500  Level New York TRACON
03:44PM 40.8000 -74.1833 252° West 227 261 2,400 1,620 Climbing New York TRACON
03:45PM 40.7167 -74.2333 204° Southwest 272 313 5,000 1,800 Climbing New York TRACON
03:46PM 40.6500 -74.2667 201° Southwest 271 312 6,000 480 Climbing New York TRACON
03:47PM 40.5833 -74.2667 180° South 271 312 6,000  Level New York TRACON
03:48PM 40.2840 -74.3493 229° Southwest  Level Estimated
03:49PM 40.4114 -74.2108 166° South 284 327 6,000  Level New York Center
03:50PM 40.3356 -74.1717 159° South 278 320 6,000 840 Level New York Center
03:51PM 40.2667 -74.1764 183° South 273 314 7,700 2,100 Climbing New York Center
03:52PM 40.1908 -74.2000 193° South 278 320 10,300 3,000 Climbing New York Center
03:54PM 40.0019 -74.2589 193° South 343 395 16,600 3,120 Climbing Washington Center
03:55PM 39.9172 -74.3336 214° Southwest 360 414 19,700 3,000 Climbing Washington Center
03:56PM 39.8267 -74.4217 217° Southwest 383 441 22,800 2,160 Climbing Washington Center
03:57PM 39.7422 -74.5308 225° Southwest 411 473 24,000 1,020 Climbing Washington Center
03:58PM 39.6492 -74.6294 219° Southwest 425 489 24,900 1,620 Climbing Washington Center
04:00PM 39.5296 -74.7822 231° Southwest  Level FlightAware Approximate
04:00PM 39.4422 -74.8094 231° Southwest 453 521 29,000  Level Washington Center
04:01PM 39.3303 -74.9019 213° Southwest 465 535 30,800 2,280 Climbing Washington Center
04:02PM 39.2139 -74.9942 212° Southwest 485 558 33,700 3,060 Climbing Washington Center
04:03PM 39.0914 -75.0675 205° Southwest 490 564 36,900 2,580 Climbing Washington Center
04:04PM 38.9728 -75.1431 206° Southwest 485 558 38,800 1,500 Climbing Washington Center
04:05PM 38.8500 -75.2131 204° Southwest 485 558 40,000 1,440 Climbing Washington Center
04:06PM 38.7272 -75.2883 206° Southwest 485 558 41,800 1,920 Climbing Washington Center
04:07PM 38.6044 -75.3553 203° Southwest 485 558 43,900 1,980 Climbing Washington Center
04:08PM 38.4900 -75.4272 206° Southwest 479 551 45,700 1,260 Climbing Washington Center
04:09PM 38.3919 -75.4883 206° Southwest 461 531 46,500 600 Climbing Washington Center
04:10PM 38.2794 -75.5519 204° Southwest 451 519 47,000 240 Climbing Washington Center
04:11PM 38.1669 -75.6208 206° Southwest 445 512 47,000  Level Washington Center
04:12PM 38.0542 -75.6919 206° Southwest 445 512 47,000  Level Washington Center
04:13PM 37.9458 -75.7681 209° Southwest 452 520 47,000  Level Washington Center
04:14PM 37.8206 -75.8442 206° Southwest 452 520 47,000  Level Washington Center
04:15PM 37.7139 -75.9094 206° Southwest 457 526 47,000  Level Washington Center
04:16PM 37.5989 -75.9797 206° Southwest 463 533 47,000  Level Washington Center
04:17PM 37.4842 -76.0497 206° Southwest 463 533 47,000  Level Washington Center
04:18PM 37.3711 -76.1197 206° Southwest 463 533 47,000  Level Washington Center
04:19PM 37.2458 -76.1736 199° South 468 539 47,000  Level Washington Center
04:20PM 37.1244 -76.2353 202° Southwest 475 547 47,000  Level Washington Center
04:21PM 37.0031 -76.2942 201° Southwest 475 547 47,000  Level Washington Center
04:22PM 36.8817 -76.3553 202° Southwest 475 547 47,000  Level Washington Center
04:23PM 36.7583 -76.4164 202° Southwest 475 547 47,000  Level Washington Center
04:24PM 36.6242 -76.4847 202° Southwest 469 540 47,000  Level Washington Center
04:25PM 36.5028 -76.5428 201° Southwest 474 545 47,000  Level Washington Center
04:26PM 36.3792 -76.6006 201° Southwest 474 545 47,000  Level Washington Center
04:27PM 36.2578 -76.6608 202° Southwest 474 545 47,000  Level Washington Center
04:28PM 36.1342 -76.7183 201° Southwest 474 545 47,000  Level Washington Center
04:29PM 36.0103 -76.7758 201° Southwest 474 545 47,000  Level Washington Center
04:30PM 35.8867 -76.8381 202° Southwest 474 545 47,000  Level Washington Center
04:31PM 35.7631 -76.8950 200° South 474 545 47,000  Level Washington Center
04:32PM 35.6392 -76.9542 201° Southwest 474 545 47,000  Level Washington Center
04:33PM 35.5197 -77.0083 200° South 465 535 47,000 -60 Level Washington Center
04:34PM 35.3958 -77.0647 200° South 477 549 46,900  Descending Washington Center
04:35PM 35.2700 -77.1261 202° Southwest 477 549 47,000  Climbing Washington Center
04:36PM 35.1461 -77.1847 201° Southwest 477 549 47,000  Level Washington Center
04:37PM 35.0181 -77.2406 200° South 477 549 47,000  Level Washington Center
04:38PM 34.8919 -77.3014 202° Southwest 482 555 47,000  Level Washington Center
04:39PM 34.7681 -77.3644 203° Southwest 482 555 47,000  Level Washington Center
04:40PM 34.6397 -77.4222 200° South 488 562 47,000  Level Washington Center
04:44PM 34.1544 -77.5856 196° South 511 588 47,000  Level Jacksonville Center
04:45PM 34.0186 -77.6264 194° South 511 588 47,000  Level Jacksonville Center
04:46PM 33.8828 -77.6719 196° South 511 588 47,000  Level Jacksonville Center
04:47PM 33.7511 -77.7147 195° South 494 568 47,000  Level Jacksonville Center
04:48PM 33.6006 -77.7611 194° South 494 568 47,000  Level Jacksonville Center
04:49PM 33.4667 -77.8061 196° South 494 568 47,000  Level Jacksonville Center
04:50PM 33.3328 -77.8486 195° South 494 568 47,000  Level Jacksonville Center
04:51PM 33.1967 -77.8886 194° South 499 574 47,000  Level Jacksonville Center
04:52PM 33.0608 -77.9333 195° South 504 580 47,000  Level Jacksonville Center
04:53PM 32.9289 -77.9728 194° South 503 579 47,000  Level Jacksonville Center
04:54PM 32.7928 -78.0147 195° South 503 579 47,000  Level Jacksonville Center
04:55PM 32.6586 -78.0592 196° South 503 579 47,000  Level Jacksonville Center
04:56PM 32.5247 -78.1008 195° South 503 579 47,000  Level Jacksonville Center
04:57PM 32.3883 -78.1422 194° South 503 579 47,000  Level Jacksonville Center
04:58PM 32.2522 -78.1839 195° South 503 579 47,000  Level Jacksonville Center
04:59PM 32.1161 -78.2250 194° South 503 579 47,000 -60 Level Jacksonville Center
05:00PM 31.9861 -78.2683 196° South 503 579 46,900  Descending Jacksonville Center
05:01PM 31.8481 -78.3144 196° South 503 579 47,000  Climbing Jacksonville Center
05:02PM 31.7097 -78.3581 195° South 510 587 47,000  Level Jacksonville Center
05:03PM 31.5775 -78.3986 195° South 510 587 47,000  Level Jacksonville Center
05:04PM 31.4433 -78.4414 195° South 505 581 47,000  Level Jacksonville Center
05:05PM 31.3111 -78.4819 195° South 506 582 47,000  Level Jacksonville Center
05:06PM 31.1728 -78.5272 196° South 504 580 47,000  Level Jacksonville Center
05:07PM 31.0386 -78.5722 196° South 509 586 47,000  Level Jacksonville Center
05:08PM 30.9189 -78.6067 194° South 499 574 47,000  Level Jacksonville Center
05:09PM 30.7889 -78.6514 196° South 505 581 47,000  Level Jacksonville Center
05:10PM 30.6503 -78.6914 194° South 517 595 47,000  Level Jacksonville Center
05:11PM 30.4761 -78.7567 198° South 483 556 47,000  Level Miami Center
05:12PM 30.3358 -78.8022 196° South 507 583 47,000  Level Miami Center
05:13PM 30.1997 -78.8525 198° South 512 589 47,000  Level Miami Center
05:14PM 30.0636 -78.9028 198° South 512 589 47,000  Level Miami Center
05:15PM 29.9336 -78.9506 198° South 507 583 47,000  Level Miami Center
05:16PM 29.7972 -78.9958 196° South 502 578 47,000  Level Miami Center
05:17PM 29.6592 -79.0264 191° South 502 578 47,000  Level Miami Center
05:18PM 29.5131 -79.0475 187° South 520 598 47,000 -660 Level Miami Center
05:19PM 29.3706 -79.0756 190° South 520 598 45,700 -1,860 Descending Miami Center
05:20PM 29.2242 -79.1011 189° South 527 606 43,300 -2,460 Descending Miami Center
05:21PM 29.0800 -79.1289 190° South 527 606 40,900 -2,400 Descending Miami Center
05:22PM 28.9356 -79.1544 189° South 532 612 38,600 -2,400 Descending Miami Center
05:23PM 28.7889 -79.1800 189° South 532 612 36,200 -2,400 Descending Miami Center
05:24PM 28.6406 -79.2053 189° South 538 619 33,900 -2,340 Descending Miami Center
05:25PM 28.4981 -79.2306 189° South 538 619 31,500 -2,340 Descending Miami Center
05:26PM 28.3600 -79.2558 189° South 528 608 29,300 -2,220 Descending Miami Center
05:27PM 28.2133 -79.2836 189° South 510 587 27,100 -2,100 Descending Miami Center
05:28PM 28.0814 -79.3089 190° South 493 567 25,100 -2,100 Descending Miami Center
05:29PM 27.9656 -79.3628 202° Southwest 458 527 23,000 -2,160 Descending Miami Center
05:30PM 27.8600 -79.4308 210° Southwest 452 520 20,900 -1,920 Descending Miami Center
05:31PM 27.7608 -79.4967 210° Southwest 428 493 19,200 -1,740 Descending Miami Center
05:32PM 27.6722 -79.5486 207° Southwest 409 471 17,500 -1,860 Descending Miami Center
05:33PM 27.5644 -79.6164 209° Southwest 402 463 15,500 -1,860 Descending Miami Center
05:34PM 27.4692 -79.6750 209° Southwest 402 463 13,800 -1,620 Descending Miami Center
05:35PM 27.3847 -79.7292 210° Southwest 383 441 12,300 -1,500 Descending Miami Center
05:36PM 27.3044 -79.7761 207° Southwest 347 399 10,900 -1,380 Descending Miami Center
05:37PM 27.2389 -79.8167 209° Southwest 311 358 9,600 -1,380 Descending Miami Center
05:38PM 27.1606 -79.8636 208° Southwest 305 351 8,200 -1,020 Descending Miami Center
05:39PM 27.0886 -79.9061 208° Southwest 294 338 7,600 -900 Descending Miami Center
05:40PM 27.0169 -79.9461 206° Southwest 289 333 6,400 -1,260 Descending Miami Center
05:41PM 26.9556 -79.9817 207° Southwest 282 325 5,100 -1,260 Descending Miami Center
05:42PM 26.8958 -80.0339 218° Southwest 282 325 4,000 -600 Descending Miami Center
05:43PM 26.8300 -80.0903 217° Southwest 282 325 4,000 -300 Level Miami Center
05:44PM 26.7808 -80.1353 219° Southwest 272 313 3,500 -540 Descending Miami Center
05:46PM 26.6832 -80.0956 271° West  Level Estimated
05:53PM 26.6832 -80.0956 110° East  Level Estimated
05:54PM 26.6832 -80.0956 110° East  Level Estimated
05:55PM 26.6832 -80.0956 110° East  Level Estimated
05:56PM 26.6832 -80.0956 110° East  Level Estimated
05:57PM 26.6832 -80.0956 110° East  Level Estimated